sensor_id;sensor_type;location;lat;lon;timestamp;pressure;altitude;pressure_sealevel;temperature;humidity
48386;BME280;34644;47.964;7.982;2023-07-09T00:01:26;97020.00;;;23.36;52.78
48386;BME280;34644;47.964;7.982;2023-07-09T00:08:27;97025.69;;;23.34;53.01
48386;BME280;34644;47.964;7.982;2023-07-09T00:15:28;97028.38;;;23.34;52.74
48386;BME280;34644;47.964;7.982;2023-07-09T00:22:29;97024.09;;;23.33;52.98
48386;BME280;34644;47.964;7.982;2023-07-09T00:29:29;97032.16;;;23.33;53.01
48386;BME280;34644;47.964;7.982;2023-07-09T00:36:30;97020.94;;;23.31;52.80
48386;BME280;34644;47.964;7.982;2023-07-09T00:43:34;97025.50;;;23.30;53.13
48386;BME280;34644;47.964;7.982;2023-07-09T00:50:56;97034.69;;;23.29;53.10
48386;BME280;34644;47.964;7.982;2023-07-09T00:57:58;97031.16;;;23.29;52.87
48386;BME280;34644;47.964;7.982;2023-07-09T01:05:00;97029.59;;;23.28;53.06
48386;BME280;34644;47.964;7.982;2023-07-09T01:12:03;97031.47;;;23.27;53.03
48386;BME280;34644;47.964;7.982;2023-07-09T01:19:06;97026.41;;;23.26;52.96
48386;BME280;34644;47.964;7.982;2023-07-09T01:26:07;97028.78;;;23.27;53.05
48386;BME280;34644;47.964;7.982;2023-07-09T01:33:07;97023.72;;;23.26;53.19
48386;BME280;34644;47.964;7.982;2023-07-09T01:40:10;97021.34;;;23.24;52.86
48386;BME280;34644;47.964;7.982;2023-07-09T01:47:11;97020.56;;;23.24;53.05
48386;BME280;34644;47.964;7.982;2023-07-09T01:54:12;97017.06;;;23.23;53.14
48386;BME280;34644;47.964;7.982;2023-07-09T02:01:12;97021.63;;;23.23;53.07
48386;BME280;34644;47.964;7.982;2023-07-09T02:08:15;97021.63;;;23.23;53.04
48386;BME280;34644;47.964;7.982;2023-07-09T02:15:15;97023.53;;;23.22;53.01
48386;BME280;34644;47.964;7.982;2023-07-09T02:22:17;97023.84;;;23.21;53.26
48386;BME280;34644;47.964;7.982;2023-07-09T02:29:19;97035.69;;;23.20;53.22
48386;BME280;34644;47.964;7.982;2023-07-09T02:36:19;97024.16;;;23.19;53.07
48386;BME280;34644;47.964;7.982;2023-07-09T02:43:20;97025.25;;;23.18;53.08
48386;BME280;34644;47.964;7.982;2023-07-09T02:50:20;97027.13;;;23.18;53.03
48386;BME280;34644;47.964;7.982;2023-07-09T02:57:21;97030.63;;;23.18;53.21
48386;BME280;34644;47.964;7.982;2023-07-09T03:04:21;97039.00;;;23.17;53.17
48386;BME280;34644;47.964;7.982;2023-07-09T03:11:22;97033.63;;;23.17;53.10
48386;BME280;34644;47.964;7.982;2023-07-09T03:18:22;97046.25;;;23.16;53.08
48386;BME280;34644;47.964;7.982;2023-07-09T03:25:31;97039.31;;;23.15;53.13
48386;BME280;34644;47.964;7.982;2023-07-09T03:32:31;97035.81;;;23.15;52.98
48386;BME280;34644;47.964;7.982;2023-07-09T03:39:31;97048.47;;;23.14;53.17
48386;BME280;34644;47.964;7.982;2023-07-09T03:46:31;97053.06;;;23.14;53.34
48386;BME280;34644;47.964;7.982;2023-07-09T03:53:32;97053.38;;;23.12;53.24
48386;BME280;34644;47.964;7.982;2023-07-09T04:00:32;97054.94;;;23.13;53.21
48386;BME280;34644;47.964;7.982;2023-07-09T04:07:33;97057.94;;;23.11;53.27
48386;BME280;34644;47.964;7.982;2023-07-09T04:14:33;97052.56;;;23.11;53.17
48386;BME280;34644;47.964;7.982;2023-07-09T04:21:34;97057.94;;;23.11;53.16
48386;BME280;34644;47.964;7.982;2023-07-09T04:28:34;97066.00;;;23.11;53.15
48386;BME280;34644;47.964;7.982;2023-07-09T04:35:34;97053.38;;;23.12;53.13
48386;BME280;34644;47.964;7.982;2023-07-09T04:42:35;97062.53;;;23.11;53.31
48386;BME280;34644;47.964;7.982;2023-07-09T04:49:35;97064.41;;;23.10;53.17
48386;BME280;34644;47.964;7.982;2023-07-09T04:56:36;97049.06;;;23.11;53.20
48386;BME280;34644;47.964;7.982;2023-07-09T05:03:37;97054.47;;;23.11;53.01
48386;BME280;34644;47.964;7.982;2023-07-09T05:10:42;97047.19;;;23.11;53.04
48386;BME280;34644;47.964;7.982;2023-07-09T05:17:42;97048.00;;;23.12;53.03
48386;BME280;34644;47.964;7.982;2023-07-09T05:24:43;97041.81;;;23.11;53.08
48386;BME280;34644;47.964;7.982;2023-07-09T05:31:43;97047.19;;;23.11;52.95
48386;BME280;34644;47.964;7.982;2023-07-09T05:38:43;97046.09;;;23.12;53.03
48386;BME280;34644;47.964;7.982;2023-07-09T05:45:43;97048.00;;;23.12;53.00
48386;BME280;34644;47.964;7.982;2023-07-09T05:52:44;97049.06;;;23.11;53.22
48386;BME280;34644;47.964;7.982;2023-07-09T05:59:44;97045.00;;;23.14;53.07
48386;BME280;34644;47.964;7.982;2023-07-09T06:06:44;97055.75;;;23.14;53.00
48386;BME280;34644;47.964;7.982;2023-07-09T06:13:46;97056.53;;;23.14;53.11
48386;BME280;34644;47.964;7.982;2023-07-09T06:20:52;97052.25;;;23.13;53.13
48386;BME280;34644;47.964;7.982;2023-07-09T06:27:52;97040.41;;;23.14;53.15
48386;BME280;34644;47.964;7.982;2023-07-09T06:34:52;97042.00;;;23.15;52.91
48386;BME280;34644;47.964;7.982;2023-07-09T06:41:53;97041.69;;;23.17;52.96
48386;BME280;34644;47.964;7.982;2023-07-09T06:49:09;97037.91;;;23.18;53.10
48386;BME280;34644;47.964;7.982;2023-07-09T06:56:09;97033.00;;;23.20;52.96
48386;BME280;34644;47.964;7.982;2023-07-09T07:03:09;97027.31;;;23.21;52.83
48386;BME280;34644;47.964;7.982;2023-07-09T07:10:10;97027.84;;;23.23;52.82
48386;BME280;34644;47.964;7.982;2023-07-09T07:17:11;97017.56;;;23.25;52.56
48386;BME280;34644;47.964;7.982;2023-07-09T07:24:11;97011.88;;;23.27;52.63
48386;BME280;34644;47.964;7.982;2023-07-09T07:31:12;97008.88;;;23.28;52.71
48386;BME280;34644;47.964;7.982;2023-07-09T07:38:12;97013.66;;;23.32;52.58
48386;BME280;34644;47.964;7.982;2023-07-09T07:45:13;97013.66;;;23.32;52.59
48386;BME280;34644;47.964;7.982;2023-07-09T07:52:13;97002.59;;;23.33;52.64
48386;BME280;34644;47.964;7.982;2023-07-09T07:59:14;97012.72;;;23.36;52.43
48386;BME280;34644;47.964;7.982;2023-07-09T08:06:15;97013.22;;;23.38;52.47
48386;BME280;34644;47.964;7.982;2023-07-09T08:13:16;97007.53;;;23.40;52.48
48386;BME280;34644;47.964;7.982;2023-07-09T08:20:16;97004.53;;;23.41;52.50
48386;BME280;34644;47.964;7.982;2023-07-09T08:27:16;97012.78;;;23.45;52.44
48386;BME280;34644;47.964;7.982;2023-07-09T08:34:17;97010.28;;;23.48;52.20
48386;BME280;34644;47.964;7.982;2023-07-09T08:41:25;97012.66;;;23.50;52.27
48386;BME280;34644;47.964;7.982;2023-07-09T08:48:33;97022.00;;;23.53;52.33
48386;BME280;34644;47.964;7.982;2023-07-09T08:55:35;97022.19;;;23.56;52.38
48386;BME280;34644;47.964;7.982;2023-07-09T09:02:50;97022.97;;;23.57;52.24
48386;BME280;34644;47.964;7.982;2023-07-09T09:09:58;97015.09;;;23.60;52.21
48386;BME280;34644;47.964;7.982;2023-07-09T09:17:02;97003.72;;;23.63;52.43
48386;BME280;34644;47.964;7.982;2023-07-09T09:24:23;96996.94;;;23.66;52.18
48386;BME280;34644;47.964;7.982;2023-07-09T09:31:28;96988.72;;;23.71;52.22
48386;BME280;34644;47.964;7.982;2023-07-09T09:38:29;96987.78;;;23.76;52.06
48386;BME280;34644;47.964;7.982;2023-07-09T09:45:35;96985.44;;;23.83;51.84
48386;BME280;34644;47.964;7.982;2023-07-09T09:52:35;96985.66;;;23.87;52.02
48386;BME280;34644;47.964;7.982;2023-07-09T09:59:37;96990.41;;;23.90;51.97
48386;BME280;34644;47.964;7.982;2023-07-09T10:06:38;96976.50;;;23.96;51.83
48386;BME280;34644;47.964;7.982;2023-07-09T10:13:40;96976.66;;;24.00;51.90
48386;BME280;34644;47.964;7.982;2023-07-09T10:20:45;96978.13;;;24.06;51.70
48386;BME280;34644;47.964;7.982;2023-07-09T10:41:48;96964.06;;;24.18;51.67
48386;BME280;34644;47.964;7.982;2023-07-09T10:48:50;96971.84;;;24.19;51.76
48386;BME280;34644;47.964;7.982;2023-07-09T10:55:52;96960.91;;;24.25;51.64
48386;BME280;34644;47.964;7.982;2023-07-09T11:03:56;96966.13;;;24.30;51.70
48386;BME280;34644;47.964;7.982;2023-07-09T11:10:26;96942.88;;;24.34;51.60
48386;BME280;34644;47.964;7.982;2023-07-09T11:17:27;96952.69;;;24.38;51.53
48386;BME280;34644;47.964;7.982;2023-07-09T11:24:33;96949.06;;;24.43;51.46
48386;BME280;34644;47.964;7.982;2023-07-09T11:38:41;96942.25;;;24.54;51.43
48386;BME280;34644;47.964;7.982;2023-07-09T11:45:41;96946.38;;;24.52;51.40
48386;BME280;34644;47.964;7.982;2023-07-09T11:52:48;96934.03;;;24.60;51.40
48386;BME280;34644;47.964;7.982;2023-07-09T11:59:51;96944.66;;;24.65;51.23
48386;BME280;34644;47.964;7.982;2023-07-09T12:06:52;96936.72;;;24.68;51.41
48386;BME280;34644;47.964;7.982;2023-07-09T12:13:53;96930.69;;;24.71;51.40
48386;BME280;34644;47.964;7.982;2023-07-09T12:20:53;96920.88;;;24.76;51.18
48386;BME280;34644;47.964;7.982;2023-07-09T12:27:57;96916.44;;;24.80;51.29
48386;BME280;34644;47.964;7.982;2023-07-09T12:34:57;96913.91;;;24.83;51.01
48386;BME280;34644;47.964;7.982;2023-07-09T12:42:01;96910.25;;;24.88;51.11
48386;BME280;34644;47.964;7.982;2023-07-09T12:49:02;96901.84;;;24.89;51.24
48386;BME280;34644;47.964;7.982;2023-07-09T12:56:07;96897.38;;;24.93;51.04
48386;BME280;34644;47.964;7.982;2023-07-09T13:03:12;96898.34;;;24.98;51.23
48386;BME280;34644;47.964;7.982;2023-07-09T13:10:17;96900.88;;;25.03;51.10
48386;BME280;34644;47.964;7.982;2023-07-09T13:17:18;96893.72;;;25.07;51.18
48386;BME280;34644;47.964;7.982;2023-07-09T13:24:19;96890.38;;;25.10;50.96
48386;BME280;34644;47.964;7.982;2023-07-09T13:31:21;96879.59;;;25.10;51.21
48386;BME280;34644;47.964;7.982;2023-07-09T13:38:22;96877.50;;;25.16;51.04
48386;BME280;34644;47.964;7.982;2023-07-09T13:45:24;96869.28;;;25.21;51.01
48386;BME280;34644;47.964;7.982;2023-07-09T13:52:24;96855.13;;;25.24;50.93
48386;BME280;34644;47.964;7.982;2023-07-09T13:59:26;96852.59;;;25.27;51.20
48386;BME280;34644;47.964;7.982;2023-07-09T14:06:27;96849.59;;;25.29;51.23
48386;BME280;34644;47.964;7.982;2023-07-09T14:13:27;96838.47;;;25.31;51.25
48386;BME280;34644;47.964;7.982;2023-07-09T14:20:29;96829.91;;;25.28;51.31
48386;BME280;34644;47.964;7.982;2023-07-09T14:27:29;96823.53;;;25.33;51.23
48386;BME280;34644;47.964;7.982;2023-07-09T14:34:31;96821.97;;;25.32;51.28
48386;BME280;34644;47.964;7.982;2023-07-09T14:41:32;96827.84;;;25.25;51.50
48386;BME280;34644;47.964;7.982;2023-07-09T14:48:33;96826.09;;;25.30;51.35
48386;BME280;34644;47.964;7.982;2023-07-09T14:55:33;96837.34;;;25.32;51.27
48386;BME280;34644;47.964;7.982;2023-07-09T15:02:34;96828.00;;;25.29;51.39
48386;BME280;34644;47.964;7.982;2023-07-09T15:09:36;96820.38;;;25.31;51.47
48386;BME280;34644;47.964;7.982;2023-07-09T15:16:37;96825.91;;;25.35;51.54
48386;BME280;34644;47.964;7.982;2023-07-09T15:23:39;96822.56;;;25.38;51.29
48386;BME280;34644;47.964;7.982;2023-07-09T15:30:40;96817.34;;;25.41;51.38
48386;BME280;34644;47.964;7.982;2023-07-09T15:37:40;96808.91;;;25.43;51.10
48386;BME280;34644;47.964;7.982;2023-07-09T15:44:41;96799.88;;;25.39;51.49
48386;BME280;34644;47.964;7.982;2023-07-09T15:51:41;96797.97;;;25.39;51.22
48386;BME280;34644;47.964;7.982;2023-07-09T15:58:42;96802.25;;;25.40;51.34
48386;BME280;34644;47.964;7.982;2023-07-09T16:05:43;96803.69;;;25.38;51.25
48386;BME280;34644;47.964;7.982;2023-07-09T16:12:45;96806.28;;;25.25;51.99
48386;BME280;34644;47.964;7.982;2023-07-09T16:19:47;96797.03;;;25.26;52.21
48386;BME280;34644;47.964;7.982;2023-07-09T16:26:47;96802.44;;;25.26;52.51
48386;BME280;34644;47.964;7.982;2023-07-09T16:33:48;96802.16;;;25.28;52.19
48386;BME280;34644;47.964;7.982;2023-07-09T16:40:48;96799.28;;;25.24;52.46
48386;BME280;34644;47.964;7.982;2023-07-09T16:47:48;96796.59;;;25.24;52.33
48386;BME280;34644;47.964;7.982;2023-07-09T16:54:50;96794.66;;;25.25;52.33
48386;BME280;34644;47.964;7.982;2023-07-09T17:01:51;96791.50;;;25.23;52.35
48386;BME280;34644;47.964;7.982;2023-07-09T17:08:51;96789.59;;;25.23;52.57
48386;BME280;34644;47.964;7.982;2023-07-09T17:15:51;96791.84;;;25.21;52.52
48386;BME280;34644;47.964;7.982;2023-07-09T17:22:52;96789.47;;;25.20;52.57
48386;BME280;34644;47.964;7.982;2023-07-09T17:29:54;96795.31;;;25.22;52.65
48386;BME280;34644;47.964;7.982;2023-07-09T17:36:54;96789.94;;;25.31;52.40
48386;BME280;34644;47.964;7.982;2023-07-09T17:43:56;96789.28;;;25.25;52.72
48386;BME280;34644;47.964;7.982;2023-07-09T17:50:56;96793.09;;;25.24;52.66
48386;BME280;34644;47.964;7.982;2023-07-09T17:57:57;96800.53;;;25.36;52.20
48386;BME280;34644;47.964;7.982;2023-07-09T18:04:57;96803.56;;;25.34;52.28
48386;BME280;34644;47.964;7.982;2023-07-09T18:11:58;96811.19;;;25.32;52.67
48386;BME280;34644;47.964;7.982;2023-07-09T18:18:58;96808.00;;;25.30;52.96
48386;BME280;34644;47.964;7.982;2023-07-09T18:26:03;96816.41;;;25.28;53.07
48386;BME280;34644;47.964;7.982;2023-07-09T18:33:04;96819.44;;;25.27;53.11
48386;BME280;34644;47.964;7.982;2023-07-09T18:40:05;96825.16;;;25.25;53.31
48386;BME280;34644;47.964;7.982;2023-07-09T18:47:14;96823.09;;;25.22;53.46
48386;BME280;34644;47.964;7.982;2023-07-09T18:54:18;96822.59;;;25.20;53.69
48386;BME280;34644;47.964;7.982;2023-07-09T19:01:19;96828.31;;;25.19;53.80
48386;BME280;34644;47.964;7.982;2023-07-09T19:08:23;96822.47;;;25.17;54.08
48386;BME280;34644;47.964;7.982;2023-07-09T19:15:24;96830.88;;;25.15;53.82
48386;BME280;34644;47.964;7.982;2023-07-09T19:22:25;96840.06;;;25.14;53.75
48386;BME280;34644;47.964;7.982;2023-07-09T19:29:26;96848.16;;;25.14;53.75
48386;BME280;34644;47.964;7.982;2023-07-09T19:36:27;96856.91;;;25.11;53.88
48386;BME280;34644;47.964;7.982;2023-07-09T19:43:27;96867.22;;;25.09;53.77
48386;BME280;34644;47.964;7.982;2023-07-09T19:50:29;96868.31;;;25.08;53.91
48386;BME280;34644;47.964;7.982;2023-07-09T19:57:30;96870.56;;;25.06;53.95
48386;BME280;34644;47.964;7.982;2023-07-09T20:04:31;96874.38;;;25.05;53.91
48386;BME280;34644;47.964;7.982;2023-07-09T20:11:31;96874.38;;;25.05;53.76
48386;BME280;34644;47.964;7.982;2023-07-09T20:18:34;96876.59;;;25.03;53.95
48386;BME280;34644;47.964;7.982;2023-07-09T20:25:34;96879.28;;;25.03;53.97
48386;BME280;34644;47.964;7.982;2023-07-09T20:32:34;96878.81;;;25.01;53.93
48386;BME280;34644;47.964;7.982;2023-07-09T20:39:36;96885.31;;;25.00;54.16
48386;BME280;34644;47.964;7.982;2023-07-09T20:46:36;96886.91;;;24.92;52.68
48386;BME280;34644;47.964;7.982;2023-07-09T20:53:37;96888.06;;;24.91;52.86
48386;BME280;34644;47.964;7.982;2023-07-09T21:00:37;96890.09;;;24.85;50.18
48386;BME280;34644;47.964;7.982;2023-07-09T21:07:40;96888.06;;;24.82;49.95
48386;BME280;34644;47.964;7.982;2023-07-09T21:14:42;96897.91;;;24.78;49.37
48386;BME280;34644;47.964;7.982;2023-07-09T21:21:42;96894.25;;;24.74;48.59
48386;BME280;34644;47.964;7.982;2023-07-09T21:28:43;96903.44;;;24.73;48.34
48386;BME280;34644;47.964;7.982;2023-07-09T21:35:44;96907.41;;;24.67;48.31
48386;BME280;34644;47.964;7.982;2023-07-09T21:42:44;96917.25;;;24.63;48.19
48386;BME280;34644;47.964;7.982;2023-07-09T21:49:44;96925.31;;;24.63;47.87
48386;BME280;34644;47.964;7.982;2023-07-09T21:56:45;96929.88;;;24.53;47.92
48386;BME280;34644;47.964;7.982;2023-07-09T22:03:45;96926.41;;;24.53;47.99
48386;BME280;34644;47.964;7.982;2023-07-09T22:10:46;96931.47;;;24.46;47.90
48386;BME280;34644;47.964;7.982;2023-07-09T22:17:47;96939.22;;;24.47;47.75
48386;BME280;34644;47.964;7.982;2023-07-09T22:24:48;96945.88;;;24.41;47.42
48386;BME280;34644;47.964;7.982;2023-07-09T22:31:49;96945.41;;;24.48;47.72
48386;BME280;34644;47.964;7.982;2023-07-09T22:38:49;96952.69;;;24.38;47.96
48386;BME280;34644;47.964;7.982;2023-07-09T22:45:49;96945.72;;;24.37;47.90
48386;BME280;34644;47.964;7.982;2023-07-09T22:52:50;96953.78;;;24.37;48.01
48386;BME280;34644;47.964;7.982;2023-07-09T22:59:50;96942.25;;;24.37;47.71
48386;BME280;34644;47.964;7.982;2023-07-09T23:06:51;96953.31;;;24.35;47.96
48386;BME280;34644;47.964;7.982;2023-07-09T23:13:51;96944.13;;;24.28;47.91
48386;BME280;34644;47.964;7.982;2023-07-09T23:20:52;96946.81;;;24.28;48.30
48386;BME280;34644;47.964;7.982;2023-07-09T23:27:53;96944.59;;;24.30;48.30
48386;BME280;34644;47.964;7.982;2023-07-09T23:34:55;96930.16;;;24.26;48.33
48386;BME280;34644;47.964;7.982;2023-07-09T23:41:55;96930.63;;;24.19;48.68
48386;BME280;34644;47.964;7.982;2023-07-09T23:48:57;96925.88;;;24.07;48.43
48386;BME280;34644;47.964;7.982;2023-07-09T23:55:59;96932.38;;;24.15;48.65
